Lake Bridgeport, Texas
Current Conditions -  °F | °C
As of 3:35 AM on Sunday 26 Oct 2014 (Local Time) from KXBP Reporting Station
Clear Clear  
Wind Chill: 71°   Ceiling: Unl
Heat Index: 71°   Visibility: 10mi
Dew Point: 59°   Wind: 9mph
Humidity: 66%   Direction: 210°SSW
Pressure: 30.02"   Gusts: 16mph
Location:  33.1691°N, 97.8246°W
Report Text: KXBP 260835Z AUTO 21008G14KT 10SM CLR 22/15 A3002 RMK AO2 T02160150
Loading
Personal Weather Stations






























Interactive Weather Map
Tropical Storm Tracking
New forecast layout! Learn more

10-Day Weather Forecast

Advertisements
Track Severe Weather on mobile